createdAt,value
2016-06-14T00:00:11.209Z,80.73
2016-06-14T00:01:10.494Z,81.02
2016-06-14T00:02:10.544Z,80.92
2016-06-14T00:04:10.519Z,80.63
2016-06-14T00:06:10.541Z,80.73
2016-06-14T00:07:10.075Z,80.73
2016-06-14T00:08:10.547Z,80.92
2016-06-14T00:09:10.550Z,80.44
2016-06-14T00:10:10.553Z,80.44
2016-06-14T00:11:10.571Z,80.73
2016-06-14T00:12:11.013Z,80.44
2016-06-14T00:13:10.577Z,80.92
2016-06-14T00:14:10.846Z,80.92
2016-06-14T00:16:10.602Z,81.21
2016-06-14T00:17:10.887Z,81.11
2016-06-14T00:18:10.609Z,80.92
2016-06-14T00:19:10.815Z,80.54
2016-06-14T00:20:10.662Z,80.54
2016-06-14T00:21:10.899Z,80.92
2016-06-14T00:22:10.699Z,80.73
2016-06-14T00:24:10.674Z,80.06
2016-06-14T00:25:10.896Z,80.54
2016-06-14T00:26:10.914Z,80.44
2016-06-14T00:27:10.698Z,80.44
2016-06-14T00:28:10.920Z,80.16
2016-06-14T00:30:11.254Z,80.44
2016-06-14T00:31:10.929Z,80.54
2016-06-14T00:32:10.761Z,80.54
2016-06-14T00:33:10.733Z,80.54
2016-06-14T00:35:11.130Z,80.82
2016-06-14T00:36:10.773Z,80.73
2016-06-14T00:38:10.951Z,80.35
2016-06-14T00:39:11.001Z,80.25
2016-06-14T00:40:10.755Z,80.63
2016-06-14T00:41:10.835Z,80.92
2016-06-14T00:42:10.776Z,80.82
2016-06-14T00:43:11.045Z,80.63
2016-06-14T00:44:10.345Z,80.73
2016-06-14T00:46:10.351Z,80.73
2016-06-14T00:47:11.041Z,80.92
2016-06-14T00:48:10.576Z,80.35
2016-06-14T00:49:10.860Z,80.63
2016-06-14T00:50:11.066Z,80.69
2016-06-14T00:51:11.085Z,80.73
2016-06-14T00:52:10.885Z,80.5
2016-06-14T00:53:10.888Z,80.73
2016-06-14T00:54:10.892Z,80.73
2016-06-14T00:55:10.894Z,80.92
2016-06-14T00:56:10.929Z,81.21
2016-06-14T00:57:11.354Z,81.11
2016-06-14T00:58:10.825Z,80.73
2016-06-14T00:59:11.297Z,80.88
2016-06-14T01:00:11.347Z,80.88
2016-06-14T01:01:11.553Z,80.92
2016-06-14T01:02:10.947Z,80.88
2016-06-14T01:03:10.950Z,81.07
2016-06-14T01:04:11.375Z,81.16
2016-06-14T01:06:11.381Z,80.88
2016-06-14T01:07:10.979Z,80.69
2016-06-14T01:08:10.996Z,80.69
2016-06-14T01:09:10.984Z,80.79
2016-06-14T01:10:10.988Z,80.69
2016-06-14T01:11:25.069Z,80.59
2016-06-14T01:12:11.211Z,80.88
2016-06-14T01:13:11.215Z,81.07
2016-06-14T01:14:11.218Z,81.16
2016-06-14T01:15:11.034Z,81.07
2016-06-14T01:16:11.239Z,80.5
2016-06-14T01:17:25.290Z,81.16
2016-06-14T01:18:25.091Z,81.16
2016-06-14T01:19:11.062Z,80.59
2016-06-14T01:20:10.565Z,80.88
2016-06-14T01:21:11.083Z,80.88
2016-06-14T01:22:11.275Z,80.69
2016-06-14T01:23:11.089Z,80.69
2016-06-14T01:24:11.702Z,80.88
2016-06-14T01:25:11.112Z,80.5
2016-06-14T01:26:11.084Z,80.88
2016-06-14T01:27:11.321Z,80.5
2016-06-14T01:28:11.090Z,80.3
2016-06-14T01:29:11.093Z,80.69
2016-06-14T01:30:10.642Z,80.69
2016-06-14T01:31:11.145Z,80.88
2016-06-14T01:32:11.148Z,80.59
2016-06-14T01:33:11.558Z,80.98
2016-06-14T01:34:11.139Z,80.98
2016-06-14T01:35:11.142Z,80.5
2016-06-14T01:36:25.224Z,80.59
2016-06-14T01:37:11.148Z,80.59
2016-06-14T01:38:11.151Z,80.98
2016-06-14T01:39:10.702Z,80.98
2016-06-14T01:40:11.173Z,80.69
2016-06-14T01:41:11.425Z,80.88
2016-06-14T01:42:11.429Z,80.69
2016-06-14T01:43:11.198Z,81.16
2016-06-14T01:44:11.107Z,81.45
2016-06-14T01:45:11.860Z,80.98
2016-06-14T01:46:10.754Z,80.98
2016-06-14T01:47:11.867Z,81.07
2016-06-14T01:48:11.479Z,80.59
2016-06-14T01:49:11.263Z,80.88
2016-06-14T01:51:11.270Z,80.79
2016-06-14T01:52:14.334Z,80.88
2016-06-14T01:53:11.292Z,80.59
2016-06-14T01:54:11.294Z,80.98
2016-06-14T01:55:25.548Z,80.69
2016-06-14T01:56:11.707Z,80.69
2016-06-14T01:57:11.304Z,80.69
2016-06-14T01:58:11.322Z,80.59
2016-06-14T01:59:25.372Z,80.79
2016-06-14T02:00:25.578Z,80.88
2016-06-14T02:01:12.003Z,80.69
2016-06-14T02:02:11.334Z,80.79
2016-06-14T02:03:11.353Z,81.03
2016-06-14T02:04:11.388Z,80.69
2016-06-14T02:05:11.546Z,80.46
2016-06-14T02:06:11.347Z,81.22
2016-06-14T02:07:11.788Z,81.22
2016-06-14T02:08:11.572Z,81.03
2016-06-14T02:10:11.375Z,81.22
2016-06-14T02:11:11.393Z,81.03
2016-06-14T02:12:11.365Z,80.93
2016-06-14T02:13:11.399Z,81.03
2016-06-14T02:14:11.419Z,81.13
2016-06-14T02:15:11.655Z,80.93
2016-06-14T02:16:11.440Z,81.03
2016-06-14T02:17:11.411Z,81.41
2016-06-14T02:18:11.415Z,80.93
2016-06-14T02:19:11.417Z,80.93
2016-06-14T02:20:10.983Z,80.93
2016-06-14T02:21:11.424Z,81.22
2016-06-14T02:22:11.442Z,81.03
2016-06-14T02:23:11.446Z,81.03
2016-06-14T02:24:11.449Z,81.13
2016-06-14T02:25:11.452Z,81.13
2016-06-14T02:26:11.330Z,81.03
2016-06-14T02:27:11.458Z,81.03
2016-06-14T02:28:11.477Z,81.13
2016-06-14T02:29:11.480Z,80.84
2016-06-14T02:30:11.717Z,81.51
2016-06-14T02:31:11.236Z,80.84
2016-06-14T02:32:11.707Z,81.13
2016-06-14T02:33:12.117Z,81.32
2016-06-14T02:34:11.511Z,81.32
2016-06-14T02:35:11.717Z,80.84
2016-06-14T02:36:11.516Z,80.84
2016-06-14T02:37:11.536Z,81.22
2016-06-14T02:38:11.726Z,81.13
2016-06-14T02:39:11.542Z,81.03
2016-06-14T02:40:11.545Z,81.22
2016-06-14T02:41:11.548Z,80.84
2016-06-14T02:42:11.568Z,80.93
2016-06-14T02:43:11.570Z,81.13
2016-06-14T02:44:11.574Z,81.32
2016-06-14T02:45:11.592Z,81.13
2016-06-14T02:46:11.579Z,81.32
2016-06-14T02:47:11.598Z,81.41
2016-06-14T02:48:12.007Z,80.84
2016-06-14T02:49:11.807Z,81.13
2016-06-14T02:50:11.998Z,81.22
2016-06-14T02:51:11.829Z,80.74
2016-06-14T02:52:12.035Z,80.84
2016-06-14T02:53:12.069Z,81.32
2016-06-14T02:54:11.650Z,81.22
2016-06-14T02:55:11.638Z,81.13
2016-06-14T02:56:11.720Z,81.13
2016-06-14T02:58:11.678Z,81.51
2016-06-14T02:59:11.932Z,81.03
2016-06-14T03:00:11.934Z,80.93
2016-06-14T03:01:11.735Z,81.03
2016-06-14T03:02:11.894Z,81.32
2016-06-14T03:03:11.897Z,81.32
2016-06-14T03:04:11.900Z,81.03
2016-06-14T03:05:11.919Z,81.22
2016-06-14T03:06:11.703Z,81.03
2016-06-14T03:07:11.941Z,81.32
2016-06-14T03:08:11.928Z,81.13
2016-06-14T03:09:11.728Z,81.13
2016-06-14T03:10:11.731Z,81.79
2016-06-14T03:11:11.749Z,81.99
2016-06-14T03:13:11.756Z,80.84
2016-06-14T03:14:12.165Z,81.03
2016-06-14T03:15:11.839Z,81.03
2016-06-14T03:16:11.828Z,80.93
2016-06-14T03:17:11.784Z,81.13
2016-06-14T03:19:12.009Z,80.74
2016-06-14T03:20:12.215Z,81.22
2016-06-14T03:21:11.812Z,81.13
2016-06-14T03:22:26.080Z,80.93
2016-06-14T03:23:12.036Z,80.74
2016-06-14T03:24:26.087Z,80.84
2016-06-14T03:25:25.902Z,81.03
2016-06-14T03:26:11.592Z,80.84
2016-06-14T03:27:11.612Z,81.13
2016-06-14T03:28:11.380Z,80.84
2016-06-14T03:29:11.836Z,81.16
2016-06-14T03:30:12.340Z,81.16
2016-06-14T03:31:11.857Z,81.07
2016-06-14T03:32:12.064Z,81.26
2016-06-14T03:33:11.880Z,81.16
2016-06-14T03:34:11.883Z,80.84
2016-06-14T03:35:11.901Z,80.88
2016-06-14T03:36:11.889Z,80.98
2016-06-14T03:37:11.892Z,80.88
2016-06-14T03:38:11.896Z,81.07
2016-06-14T03:39:11.743Z,81.07
2016-06-14T03:40:11.933Z,80.88
2016-06-14T03:41:11.919Z,81.07
2016-06-14T03:42:11.922Z,81.16
2016-06-14T03:43:11.926Z,80.88
2016-06-14T03:44:11.945Z,80.98
2016-06-14T03:45:11.948Z,80.98
2016-06-14T03:46:11.951Z,81.16
2016-06-14T03:47:12.157Z,81.16
2016-06-14T03:48:11.973Z,80.88
2016-06-14T03:49:11.960Z,81.07
2016-06-14T03:50:11.994Z,80.98
2016-06-14T03:51:11.997Z,80.88
2016-06-14T03:52:12.203Z,80.88
2016-06-14T03:53:12.410Z,80.98
2016-06-14T03:54:12.429Z,81.07
2016-06-14T03:55:12.026Z,81.26
2016-06-14T03:56:12.231Z,80.98
2016-06-14T03:57:12.032Z,80.98
2016-06-14T03:58:12.051Z,81.26
2016-06-14T03:59:12.054Z,80.98
2016-06-14T04:01:12.044Z,81.26
2016-06-14T04:02:12.484Z,80.79
2016-06-14T04:03:12.066Z,80.79
2016-06-14T04:04:12.070Z,81.07
2016-06-14T04:05:12.087Z,81.07
2016-06-14T04:06:12.325Z,80.69
2016-06-14T04:07:12.109Z,80.88
2016-06-14T04:08:11.957Z,81.07
2016-06-14T04:09:12.100Z,80.69
2016-06-14T04:10:12.118Z,81.74
2016-06-14T04:11:11.903Z,81.55
2016-06-14T04:12:12.125Z,80.92
2016-06-14T04:13:12.159Z,81.16
2016-06-14T04:14:12.146Z,81.21
2016-06-14T04:15:12.149Z,80.92
2016-06-14T04:16:12.527Z,81.3
2016-06-14T04:17:12.155Z,81.21
2016-06-14T04:18:12.174Z,81.21
2016-06-14T04:19:12.178Z,80.54
2016-06-14T04:20:12.197Z,81.11
2016-06-14T04:21:12.183Z,80.73
2016-06-14T04:22:12.406Z,80.92
2016-06-14T04:23:12.205Z,80.73
2016-06-14T04:24:12.209Z,80.73
2016-06-14T04:25:12.227Z,80.63
2016-06-14T04:26:12.230Z,80.73
2016-06-14T04:27:12.233Z,80.35
2016-06-14T04:28:12.237Z,80.35
2016-06-14T04:29:12.239Z,80.67
2016-06-14T04:30:12.320Z,80.54
2016-06-14T04:31:12.278Z,80.25
2016-06-14T04:32:12.265Z,80.1
2016-06-14T04:33:12.283Z,80.16
2016-06-14T04:34:12.287Z,80.19
2016-06-14T04:35:12.290Z,80.1
2016-06-14T04:36:12.495Z,80.1
2016-06-14T04:37:12.513Z,80.29
2016-06-14T04:38:12.314Z,80.38
2016-06-14T04:39:12.723Z,80.29
2016-06-14T04:40:12.742Z,80.29
2016-06-14T04:41:12.542Z,79.81
2016-06-14T04:42:12.342Z,80.1
2016-06-14T04:43:12.564Z,80
2016-06-14T04:44:12.363Z,79.91
2016-06-14T04:45:12.710Z,80.19
2016-06-14T04:47:12.373Z,79.91
2016-06-14T04:48:12.392Z,80.19
2016-06-14T04:49:12.410Z,80
2016-06-14T04:50:12.273Z,80.19
2016-06-14T04:51:12.417Z,80.04
2016-06-14T04:52:12.435Z,80.33
2016-06-14T04:53:12.438Z,79.57
2016-06-14T04:54:12.441Z,79.37
2016-06-14T04:55:12.460Z,79.85
2016-06-14T04:56:12.463Z,79.57
2016-06-14T04:57:12.467Z,79.47
2016-06-14T04:58:12.469Z,79.32
2016-06-14T04:59:12.488Z,78.93
2016-06-14T05:00:12.491Z,78.84
2016-06-14T05:01:12.932Z,78.64
2016-06-14T05:02:12.498Z,78.27
2016-06-14T05:03:12.516Z,78.55
2016-06-14T05:04:12.535Z,78.64
2016-06-14T05:05:12.803Z,78.36
2016-06-14T05:06:12.541Z,78.36
2016-06-14T05:07:12.763Z,78.69
2016-06-14T05:08:12.812Z,78.74
2016-06-14T05:09:12.784Z,78.69
2016-06-14T05:10:12.600Z,78.3
2016-06-14T05:11:12.588Z,78.4
2016-06-14T05:12:13.013Z,78.4
2016-06-14T05:13:12.610Z,78.59
2016-06-14T05:14:12.863Z,78.49
2016-06-14T05:15:13.084Z,78.3
2016-06-14T05:16:27.119Z,78.4
2016-06-14T05:17:12.669Z,77.82
2016-06-14T05:18:26.734Z,77.67
2016-06-14T05:19:27.143Z,78.02
2016-06-14T05:20:27.349Z,78.25
2016-06-14T05:21:12.899Z,78.63
2016-06-14T05:22:12.699Z,77.67
2016-06-14T05:23:12.702Z,78.34
2016-06-14T05:24:12.722Z,77.86
2016-06-14T05:25:12.944Z,77.76
2016-06-14T05:26:12.743Z,77.67
2016-06-14T05:27:12.589Z,77.58
2016-06-14T05:28:12.749Z,78.25
2016-06-14T05:29:12.752Z,78.09
2016-06-14T05:30:13.318Z,77.42
2016-06-14T05:31:12.773Z,78
2016-06-14T05:32:12.793Z,77.51
2016-06-14T05:33:12.796Z,77.9
2016-06-14T05:34:12.814Z,77.8
2016-06-14T05:35:13.020Z,77.9
2016-06-14T05:36:13.243Z,77.42
2016-06-14T05:37:12.839Z,77.23
2016-06-14T05:38:12.859Z,77.23
2016-06-14T05:39:12.861Z,77.42
2016-06-14T05:40:12.864Z,77.23
2016-06-14T05:41:13.086Z,77.13
2016-06-14T05:42:12.933Z,77.17
2016-06-14T05:43:26.983Z,76.31
2016-06-14T05:44:12.939Z,76.59
2016-06-14T05:45:13.442Z,76.88
2016-06-14T05:46:13.695Z,76.98
2016-06-14T05:47:12.976Z,76.5
2016-06-14T05:48:12.964Z,76.59
2016-06-14T05:49:12.967Z,76.12
2016-06-14T05:50:12.971Z,76.12
2016-06-14T05:51:12.988Z,75.73
2016-06-14T05:52:12.992Z,75.73
2016-06-14T05:53:13.011Z,75.73
2016-06-14T05:54:13.045Z,76.06
2016-06-14T05:55:13.250Z,75.1
2016-06-14T05:56:13.489Z,75.1
2016-06-14T05:57:13.054Z,75.77
2016-06-14T05:59:13.076Z,75.1
2016-06-14T06:00:13.344Z,75.57
2016-06-14T06:01:13.738Z,75.77
2016-06-14T06:02:13.335Z,75.1
2016-06-14T06:03:13.119Z,75.1
2016-06-14T06:04:13.139Z,75.29
2016-06-14T06:05:13.329Z,75.67
2016-06-14T06:06:13.362Z,75.29
2016-06-14T06:07:13.366Z,75.1
2016-06-14T06:08:13.166Z,75.1
2016-06-14T06:09:13.185Z,75.48
2016-06-14T06:10:13.438Z,75.1
2016-06-14T06:11:13.238Z,75.67
2016-06-14T06:12:13.256Z,75.48
2016-06-14T06:14:13.294Z,75.96
2016-06-14T06:15:13.375Z,75.77
2016-06-14T06:16:12.893Z,75.57
2016-06-14T06:17:13.288Z,75.77
2016-06-14T06:18:27.357Z,75.77
2016-06-14T06:19:13.419Z,75.67
2016-06-14T06:20:13.359Z,74.71
2016-06-14T06:21:13.518Z,74.62
2016-06-14T06:22:13.803Z,74.81
2016-06-14T06:23:13.369Z,74.13
2016-06-14T06:24:13.356Z,74.52
2016-06-14T06:25:13.375Z,74.52
2016-06-14T06:26:13.378Z,74.23
2016-06-14T06:27:14.349Z,74.71
2016-06-14T06:28:13.602Z,74.94
2016-06-14T06:29:13.622Z,74.43
2016-06-14T06:30:13.421Z,74.75
2016-06-14T06:31:13.472Z,74.46
2016-06-14T06:32:13.631Z,73.88
2016-06-14T06:33:12.993Z,73.79
2016-06-14T06:34:13.496Z,74.65
2016-06-14T06:35:13.499Z,73.88
2016-06-14T06:36:13.502Z,73.6
2016-06-14T06:37:13.505Z,73.98
2016-06-14T06:38:13.571Z,73.79
2016-06-14T06:39:13.386Z,73.83
2016-06-14T06:40:13.530Z,73.54
2016-06-14T06:41:13.549Z,73.15
2016-06-14T06:42:13.552Z,72.86
2016-06-14T06:43:13.556Z,72.29
2016-06-14T06:44:13.401Z,72.29
2016-06-14T06:45:13.982Z,71.91
2016-06-14T06:46:13.652Z,71.61
2016-06-14T06:47:13.914Z,72.19
2016-06-14T06:48:13.721Z,72
2016-06-14T06:49:13.529Z,71.61
2016-06-14T06:51:13.926Z,71.04
2016-06-14T06:52:13.895Z,71.42
2016-06-14T06:53:13.913Z,71.14
2016-06-14T06:54:13.930Z,71.08
2016-06-14T06:55:13.963Z,71.33
2016-06-14T06:56:13.991Z,71.08
2016-06-14T06:57:14.030Z,71.65
2016-06-14T06:58:28.374Z,70.78
2016-06-14T06:59:14.483Z,70.88
2016-06-14T07:00:14.507Z,70.59
2016-06-14T07:01:14.388Z,70.88
2016-06-14T07:02:28.367Z,70.11
2016-06-14T07:03:14.554Z,69.92
2016-06-14T07:04:14.324Z,68.99
2016-06-14T07:05:14.330Z,68.7
2016-06-14T07:07:14.149Z,69.28
2016-06-14T07:08:13.700Z,69.28
2016-06-14T07:09:14.157Z,69.28
2016-06-14T07:10:14.222Z,68.99
2016-06-14T07:11:14.398Z,69.47
2016-06-14T07:13:14.248Z,69.09
2016-06-14T07:14:14.251Z,68.54
2016-06-14T07:15:14.271Z,68.41
2016-06-14T07:16:14.712Z,68.54
2016-06-14T07:17:14.277Z,67.77
2016-06-14T07:18:14.296Z,68.41
2016-06-14T07:19:14.502Z,68.41
2016-06-14T07:20:14.725Z,68.8
2016-06-14T07:21:14.539Z,68.8
2016-06-14T07:22:14.371Z,68.6
2016-06-14T07:23:28.455Z,68.7
2016-06-14T07:24:14.862Z,68.8
2016-06-14T07:25:14.380Z,68.41
2016-06-14T07:26:14.399Z,68.8
2016-06-14T07:27:14.402Z,68.7
2016-06-14T07:28:14.405Z,68.32
2016-06-14T07:29:14.423Z,68.41
2016-06-14T07:30:14.692Z,67.74
2016-06-14T07:31:28.823Z,68.32
2016-06-14T07:32:14.495Z,68.7
2016-06-14T07:34:14.924Z,68.41
2016-06-14T07:35:14.520Z,68.03
2016-06-14T07:36:14.711Z,68.22
2016-06-14T07:37:14.527Z,68.6
2016-06-14T07:38:14.388Z,68.32
2016-06-14T07:39:14.750Z,68.8
2016-06-14T07:40:15.176Z,68.6
2016-06-14T07:41:14.617Z,68.03
2016-06-14T07:42:14.151Z,68.41
2016-06-14T07:43:14.607Z,68.6
2016-06-14T07:44:14.673Z,68.19
2016-06-14T07:45:14.644Z,68.76
2016-06-14T07:46:15.617Z,69.09
2016-06-14T07:47:14.666Z,68.57
2016-06-14T07:48:14.872Z,68.57
2016-06-14T07:49:14.939Z,68.38
2016-06-14T07:50:14.692Z,68.29
2016-06-14T07:51:14.928Z,68.76
2016-06-14T07:52:28.997Z,67.8
2016-06-14T07:54:14.954Z,68.09
2016-06-14T07:55:14.503Z,68.22
2016-06-14T07:56:29.088Z,68.51
2016-06-14T07:57:14.838Z,68.13
2016-06-14T07:58:15.201Z,68.51
2016-06-14T07:59:14.859Z,68.51
2016-06-14T08:00:15.018Z,68.13
2016-06-14T08:01:14.835Z,67.35
2016-06-14T08:02:15.040Z,67.65
2016-06-14T08:03:14.857Z,67.65
2016-06-14T08:04:15.094Z,67.07
2016-06-14T08:05:14.878Z,67.55
2016-06-14T08:06:14.897Z,66.88
2016-06-14T08:07:14.899Z,67.39
2016-06-14T08:08:14.918Z,67.55
2016-06-14T08:09:14.937Z,66.97
2016-06-14T08:10:14.971Z,66.78
2016-06-14T08:11:14.959Z,66.3
2016-06-14T08:12:15.416Z,66.3
2016-06-14T08:13:15.605Z,67.26
2016-06-14T08:14:14.827Z,66.78
2016-06-14T08:15:15.205Z,66.3
2016-06-14T08:16:15.256Z,66.01
2016-06-14T08:17:15.055Z,66.01
2016-06-14T08:18:15.152Z,66.01
2016-06-14T08:20:15.299Z,65.17
2016-06-14T08:21:15.130Z,65.27
2016-06-14T08:22:15.305Z,64.98
2016-06-14T08:23:15.121Z,66.04
2016-06-14T08:24:15.108Z,65.37
2016-06-14T08:25:15.721Z,65.11
2016-06-14T08:26:15.380Z,64.43
2016-06-14T08:27:15.164Z,62.99
2016-06-14T08:28:15.823Z,63.57
2016-06-14T08:29:15.812Z,63.09
2016-06-14T08:30:15.033Z,63.76
2016-06-14T08:31:15.910Z,64.25
2016-06-14T08:32:18.117Z,64.63
2016-06-14T08:33:15.449Z,62.7
2016-06-14T08:34:15.294Z,63.76
2016-06-14T08:35:29.333Z,63.09
2016-06-14T08:36:15.270Z,63.76
2016-06-14T08:37:15.289Z,63.6
2016-06-14T08:38:15.339Z,62.35
2016-06-14T08:39:15.732Z,62.45
2016-06-14T08:40:15.751Z,62.25
2016-06-14T08:41:15.348Z,61.96
2016-06-14T08:42:15.352Z,61.96
2016-06-14T08:43:15.370Z,62.83
2016-06-14T08:44:15.372Z,62.25
2016-06-14T08:45:15.392Z,61.9
2016-06-14T08:46:15.675Z,62.48
2016-06-14T08:47:15.413Z,62.18
2016-06-14T08:48:15.901Z,62.18
2016-06-14T08:49:15.451Z,62.09
2016-06-14T08:50:15.688Z,61.41
2016-06-14T08:51:16.301Z,59.97
2016-06-14T08:52:15.475Z,60.83
2016-06-14T08:53:29.981Z,61.13
2016-06-14T08:54:15.528Z,60.77
2016-06-14T08:55:15.767Z,60.96
2016-06-14T08:56:16.347Z,60.77
2016-06-14T08:57:29.838Z,60
2016-06-14T08:58:30.246Z,59.42
2016-06-14T08:59:15.590Z,60.48
2016-06-14T09:00:15.625Z,60.28
2016-06-14T09:01:16.316Z,60.13
2016-06-14T09:02:15.475Z,58.1
2016-06-14T09:03:15.634Z,58.68
2016-06-14T09:04:16.262Z,58.29
2016-06-14T09:05:15.890Z,57.81
2016-06-14T09:06:15.893Z,58
2016-06-14T09:07:15.553Z,58.58
2016-06-14T09:08:15.697Z,59.06
2016-06-14T09:09:15.716Z,58.68
2016-06-14T09:11:15.752Z,57.52
2016-06-14T09:12:15.802Z,56.96
2016-06-14T09:14:15.825Z,57.16
2016-06-14T09:15:15.812Z,56.39
2016-06-14T09:16:16.237Z,56.58
2016-06-14T09:17:16.037Z,56.96
2016-06-14T09:18:15.837Z,56.96
2016-06-14T09:19:15.402Z,56.77
2016-06-14T09:20:29.956Z,58.32
2016-06-14T09:21:15.909Z,56.39
2016-06-14T09:22:16.130Z,57.26
2016-06-14T09:23:15.931Z,57.35
2016-06-14T09:24:15.965Z,57.45
2016-06-14T09:25:15.968Z,58.12
2016-06-14T09:26:15.971Z,57.06
2016-06-14T09:27:15.974Z,57.45
2016-06-14T09:28:15.993Z,57.26
2016-06-14T09:30:16.030Z,57.06
2016-06-14T09:31:16.580Z,56.87
2016-06-14T09:32:16.348Z,56.58
2016-06-14T09:33:16.086Z,56.39
2016-06-14T09:34:16.074Z,56.96
2016-06-14T09:35:16.139Z,57.04
2016-06-14T09:36:16.548Z,57.23
2016-06-14T09:37:30.195Z,57.23
2016-06-14T09:38:30.214Z,57.52
2016-06-14T09:39:16.370Z,57.42
2016-06-14T09:40:16.186Z,57.32
2016-06-14T09:41:16.172Z,56.84
2016-06-14T09:42:16.192Z,56.58
2016-06-14T09:43:16.210Z,52.98
2016-06-14T09:44:16.635Z,52.72
2016-06-14T09:45:16.264Z,54.36
2016-06-14T09:46:16.438Z,54.94
2016-06-14T09:47:16.270Z,54.65
2016-06-14T09:48:16.272Z,53.69
2016-06-14T09:49:16.541Z,52.91
2016-06-14T09:50:16.732Z,54.07
2016-06-14T09:51:16.328Z,53.69
2016-06-14T09:52:16.363Z,54.75
2016-06-14T09:53:16.381Z,55.42
2016-06-14T09:54:16.369Z,55.81
2016-06-14T09:55:16.591Z,55.81
2016-06-14T09:56:16.797Z,55.78
2016-06-14T09:57:16.613Z,56.94
2016-06-14T09:58:16.428Z,56.84
2016-06-14T09:59:16.431Z,56.74
2016-06-14T10:00:16.653Z,57.42
2016-06-14T10:01:17.328Z,57.42
2016-06-14T10:02:16.973Z,57.59
2016-06-14T10:03:16.726Z,58.17
2016-06-14T10:04:16.649Z,58.26
2016-06-14T10:05:16.685Z,59.42
2016-06-14T10:06:16.860Z,58.45
2016-06-14T10:07:16.800Z,58.55
2016-06-14T10:09:16.587Z,58.42
2016-06-14T10:10:16.825Z,58.94
2016-06-14T10:11:16.828Z,58.81
2016-06-14T10:12:16.628Z,59.8
2016-06-14T10:13:16.631Z,60.28
2016-06-14T10:14:16.852Z,60.38
2016-06-14T10:15:16.683Z,59.8
2016-06-14T10:16:17.061Z,60.71
2016-06-14T10:17:17.096Z,59.93
2016-06-14T10:18:16.725Z,58.29
2016-06-14T10:19:16.712Z,58.19
2016-06-14T10:20:16.964Z,57.32
2016-06-14T10:21:17.437Z,57.42
2016-06-14T10:22:17.487Z,57.23
2016-06-14T10:23:16.771Z,57.04
2016-06-14T10:24:17.571Z,57.23
2016-06-14T10:25:16.855Z,57.52
2016-06-14T10:26:17.046Z,56.65
2016-06-14T10:27:30.896Z,55.98
2016-06-14T10:29:16.930Z,56.56
2016-06-14T10:30:16.964Z,55.98
2016-06-14T10:31:16.889Z,56.56
2016-06-14T10:32:16.907Z,57.32
2016-06-14T10:33:17.005Z,55.88
2016-06-14T10:34:31.213Z,56.84
2016-06-14T10:35:17.166Z,56.36
2016-06-14T10:36:31.033Z,56.16
2016-06-14T10:37:16.986Z,55.68
2016-06-14T10:40:17.105Z,55.3
2016-06-14T10:41:17.279Z,55.88
2016-06-14T10:42:17.079Z,55.59
2016-06-14T10:43:17.144Z,55.49
2016-06-14T10:44:17.305Z,55.78
2016-06-14T10:45:17.167Z,56.16
2016-06-14T10:46:17.544Z,56.74
2016-06-14T10:47:17.517Z,55.88
2016-06-14T10:48:17.331Z,56.36
2016-06-14T10:49:17.256Z,55.3
2016-06-14T10:50:17.213Z,55.68
2016-06-14T10:51:16.748Z,55.88
2016-06-14T10:52:17.751Z,56.29
2016-06-14T10:53:17.347Z,55.81
2016-06-14T10:54:18.414Z,56.29
2016-06-14T10:55:17.213Z,55.81
2016-06-14T10:56:17.544Z,55.42
2016-06-14T10:57:17.251Z,55.62
2016-06-14T10:58:17.550Z,55.71
2016-06-14T10:59:17.506Z,55.65
2016-06-14T11:00:17.525Z,55.83
2016-06-14T11:01:17.982Z,55.55
2016-06-14T11:02:31.410Z,54.97
2016-06-14T11:03:17.347Z,54.49
2016-06-14T11:04:17.631Z,55.26
2016-06-14T11:05:17.541Z,55.83
2016-06-14T11:06:17.731Z,56.32
2016-06-14T11:07:17.734Z,56.71
2016-06-14T11:08:17.612Z,55.83
2016-06-14T11:09:17.724Z,56.03
2016-06-14T11:10:17.696Z,55.74
2016-06-14T11:11:17.480Z,55.65
2016-06-14T11:12:18.030Z,55.65
2016-06-14T11:13:17.518Z,55.19
2016-06-14T11:14:17.786Z,54.97
2016-06-14T11:15:31.856Z,55.09
2016-06-14T11:16:18.653Z,54.8
2016-06-14T11:17:17.967Z,54.51
2016-06-14T11:18:17.612Z,54.41
2016-06-14T11:19:17.755Z,54.22
2016-06-14T11:20:31.872Z,54.32
2016-06-14T11:21:17.684Z,54.9
2016-06-14T11:22:17.889Z,54.61
2016-06-14T11:24:17.943Z,54.83
2016-06-14T11:25:17.711Z,54.93
2016-06-14T11:26:17.793Z,54.83
2016-06-14T11:27:18.077Z,52.89
2016-06-14T11:28:18.220Z,52.92
2016-06-14T11:29:17.849Z,52.14
2016-06-14T11:30:17.899Z,51.86
2016-06-14T11:31:18.058Z,52.63
2016-06-14T11:32:32.283Z,52.63
2016-06-14T11:33:17.845Z,51.86
2016-06-14T11:34:18.176Z,52.14
2016-06-14T11:35:18.039Z,53.21
2016-06-14T11:36:31.905Z,49.82
2016-06-14T11:37:18.108Z,50.02
2016-06-14T11:38:18.564Z,51.08
2016-06-14T11:39:18.521Z,50.12
2016-06-14T11:40:18.008Z,49.82
2016-06-14T11:41:17.994Z,49.82
2016-06-14T11:42:18.248Z,49.63
2016-06-14T11:43:18.408Z,50.7
2016-06-14T11:44:18.598Z,50.6
2016-06-14T11:45:18.101Z,50.6
2016-06-14T11:46:18.057Z,51.08
2016-06-14T11:47:18.670Z,51.08
2016-06-14T11:48:18.001Z,51.28
2016-06-14T11:49:19.691Z,50.79
2016-06-14T11:50:17.680Z,49.92
2016-06-14T11:51:18.245Z,49.6
2016-06-14T11:52:18.311Z,48.83
2016-06-14T11:53:18.470Z,49.51
2016-06-14T11:54:18.612Z,49.7
2016-06-14T11:55:18.351Z,50.16
2016-06-14T11:56:18.244Z,51.06
2016-06-14T11:57:18.246Z,51.51
2016-06-14T11:58:18.360Z,51.42
2016-06-14T11:59:18.285Z,50.65
2016-06-14T12:00:18.569Z,51.13
2016-06-14T12:01:18.384Z,51.61
2016-06-14T12:02:18.669Z,51.71
2016-06-14T12:03:32.376Z,52.29
2016-06-14T12:04:18.769Z,51.81
2016-06-14T12:05:18.710Z,51.03
2016-06-14T12:06:18.493Z,51.32
2016-06-14T12:07:18.402Z,51.25
2016-06-14T12:08:18.391Z,51.35
2016-06-14T12:09:18.753Z,51.54
2016-06-14T12:10:18.678Z,51.15
2016-06-14T12:11:32.650Z,51.15
2016-06-14T12:12:18.684Z,51.15
2016-06-14T12:14:18.659Z,49.44
2016-06-14T12:15:18.678Z,50.12
2016-06-14T12:18:19.546Z,48.42
2016-06-14T12:19:18.737Z,48.03
2016-06-14T12:20:18.724Z,48.13
2016-06-14T12:21:20.259Z,47.94
2016-06-14T12:23:19.031Z,47.72
2016-06-14T12:24:32.704Z,48.2
2016-06-14T12:25:32.771Z,49.17
2016-06-14T12:26:18.759Z,48.11
2016-06-14T12:27:18.964Z,48.37
2016-06-14T12:28:18.874Z,49.17
2016-06-14T12:29:18.908Z,49.27
2016-06-14T12:30:18.880Z,48.49
2016-06-14T12:31:18.898Z,49.17
2016-06-14T12:32:18.854Z,48.08
2016-06-14T12:33:18.780Z,48.59
2016-06-14T12:34:19.096Z,49.37
2016-06-14T12:35:18.864Z,48.49
2016-06-14T12:36:18.821Z,47.72
2016-06-14T12:37:33.058Z,47.14
2016-06-14T12:38:19.156Z,47.94
2016-06-14T12:39:19.251Z,47.94
2016-06-14T12:40:19.223Z,47.55
2016-06-14T12:41:18.493Z,46.41
2016-06-14T12:42:18.495Z,45.73
2016-06-14T12:43:19.482Z,45.92
2016-06-14T12:44:18.971Z,46.7
2016-06-14T12:45:19.083Z,46.31
2016-06-14T12:46:19.102Z,46.8
2016-06-14T12:47:19.651Z,46.89
2016-06-14T12:48:19.311Z,46.7
2016-06-14T12:49:19.299Z,46.8
2016-06-14T12:50:19.051Z,46.7
2016-06-14T12:51:19.102Z,46.99
2016-06-14T12:52:18.995Z,47.67
2016-06-14T12:53:19.091Z,47.86
2016-06-14T12:54:19.329Z,47.64
2016-06-14T12:55:19.176Z,48.03
2016-06-14T12:59:19.251Z,47.94
2016-06-14T13:00:19.207Z,48.39
2016-06-14T13:01:19.179Z,48.2
2016-06-14T13:02:19.197Z,46.75
2016-06-14T13:03:19.341Z,46.84
2016-06-14T13:04:19.750Z,47.91
2016-06-14T13:05:19.706Z,48.39
2016-06-14T13:06:19.663Z,47.91
2016-06-14T13:07:19.447Z,48.3
2016-06-14T13:08:19.857Z,47.91
2016-06-14T13:09:19.766Z,46.87
2016-06-14T13:10:19.363Z,47.64
2016-06-14T13:11:19.507Z,47.06
2016-06-14T13:12:19.463Z,46.6
2016-06-14T13:13:19.653Z,45.44
2016-06-14T13:14:19.734Z,45.25
2016-06-14T13:15:19.566Z,45.65
2016-06-14T13:16:19.834Z,43.52
2016-06-14T13:17:20.462Z,43.82
2016-06-14T13:18:19.544Z,41.68
2016-06-14T13:19:19.703Z,43.13
2016-06-14T13:21:19.505Z,44.86
2016-06-14T13:22:19.713Z,45.17
2016-06-14T13:23:19.544Z,44.47
2016-06-14T13:24:19.734Z,45.07
2016-06-14T13:25:19.581Z,42.26
2016-06-14T13:26:19.584Z,42.55
2016-06-14T13:28:19.841Z,43.33
2016-06-14T13:29:19.609Z,39.26
2016-06-14T13:30:19.815Z,40.25
2016-06-14T13:31:19.661Z,41.51
2016-06-14T13:32:19.650Z,41.61
2016-06-14T13:33:19.700Z,41.51
2016-06-14T13:34:19.905Z,39.57
2016-06-14T13:35:19.706Z,39.47
2016-06-14T13:36:19.709Z,39.28